createdAt,value
2023-05-21T00:00:43.018Z,9.35
2023-05-21T00:03:14.194Z,8.48
2023-05-21T00:05:42.341Z,8.75
2023-05-21T00:08:10.526Z,9.85
2023-05-21T00:10:38.659Z,8.20
2023-05-21T00:13:06.712Z,13.02
2023-05-21T00:15:34.935Z,8.30
2023-05-21T00:18:04.962Z,11.27
2023-05-21T00:20:33.315Z,9.85
2023-05-21T00:23:02.735Z,9.68
2023-05-21T00:25:30.927Z,8.35
2023-05-21T00:27:58.939Z,8.95
2023-05-21T00:30:26.922Z,10.85
2023-05-21T00:32:55.002Z,8.80
2023-05-21T00:35:24.678Z,11.63
2023-05-21T00:37:53.983Z,9.43
2023-05-21T00:40:22.429Z,9.13
2023-05-21T00:42:50.386Z,10.40
2023-05-21T00:45:18.374Z,8.68
2023-05-21T00:47:48.512Z,7.75
2023-05-21T00:50:17.487Z,9.75
2023-05-21T00:52:47.033Z,9.23
2023-05-21T00:55:15.570Z,10.48
2023-05-21T00:57:43.992Z,11.50
2023-05-21T01:00:14.633Z,7.63
2023-05-21T01:02:44.171Z,9.52
2023-05-21T01:05:12.351Z,10.48
2023-05-21T01:07:42.514Z,7.80
2023-05-21T01:10:13.743Z,9.90
2023-05-21T01:12:44.822Z,8.68
2023-05-21T01:15:14.230Z,9.27
2023-05-21T01:17:42.716Z,12.57
2023-05-21T01:20:11.865Z,8.68
2023-05-21T01:22:44.642Z,7.53
2023-05-21T01:25:15.031Z,7.30
2023-05-21T01:27:43.425Z,8.45
2023-05-21T01:30:12.532Z,10.70
2023-05-21T01:32:46.232Z,10.48
2023-05-21T01:35:20.399Z,12.35
2023-05-21T01:37:52.649Z,9.48
2023-05-21T02:44:05.962Z,14.43
2023-05-21T02:46:34.195Z,13.60
2023-05-21T02:49:02.450Z,11.35
2023-05-21T02:51:30.558Z,10.25
2023-05-21T02:53:58.788Z,12.68
2023-05-21T02:56:28.135Z,10.38
2023-05-21T02:58:56.289Z,11.63
2023-05-21T03:01:26.359Z,12.23
2023-05-21T03:03:55.763Z,13.25
2023-05-21T03:06:24.109Z,12.13
2023-05-21T03:08:52.259Z,13.82
2023-05-21T03:11:20.746Z,11.13
2023-05-21T03:13:48.790Z,11.63
2023-05-21T03:16:17.683Z,11.82
2023-05-21T03:18:47.394Z,18.38
2023-05-21T03:21:15.660Z,11.40
2023-05-21T03:23:43.731Z,13.45
2023-05-21T03:26:14.064Z,13.48
2023-05-21T03:28:42.417Z,12.98
2023-05-21T03:31:10.723Z,13.90
2023-05-21T03:33:47.170Z,13.18
2023-05-21T03:36:30.184Z,14.10
2023-05-21T03:38:58.866Z,11.30
2023-05-21T03:41:27.190Z,11.95
2023-05-21T03:44:01.556Z,13.68
2023-05-21T03:46:36.479Z,13.70
2023-05-21T03:49:12.541Z,13.57
2023-05-21T03:51:41.602Z,12.38
2023-05-21T03:54:13.622Z,12.68
2023-05-21T03:56:43.035Z,17.83
2023-05-21T03:59:11.396Z,18.20
2023-05-21T04:01:40.067Z,13.52
2023-05-21T04:04:13.278Z,15.45
2023-05-21T04:06:42.302Z,12.77
2023-05-21T04:09:11.849Z,15.35
2023-05-21T04:11:40.489Z,11.73
2023-05-21T04:14:09.039Z,14.43
2023-05-21T04:16:38.657Z,14.63
2023-05-21T04:19:07.761Z,14.07
2023-05-21T04:21:38.528Z,13.18
2023-05-21T04:24:07.643Z,12.55
2023-05-21T04:26:53.839Z,15.07
2023-05-21T04:29:22.244Z,14.50
2023-05-21T04:31:51.595Z,15.13
2023-05-21T04:34:20.546Z,14.75
2023-05-21T04:36:51.943Z,11.98
2023-05-21T04:39:19.971Z,16.60
2023-05-21T04:41:48.430Z,12.40
2023-05-21T04:44:16.556Z,12.95
2023-05-21T04:46:46.840Z,14.98
2023-05-21T04:49:15.345Z,18.63
2023-05-21T04:51:43.457Z,14.38
2023-05-21T04:54:12.928Z,12.68
2023-05-21T04:56:40.917Z,11.57
2023-05-21T04:59:08.860Z,14.93
2023-05-21T05:01:44.415Z,16.08
2023-05-21T05:04:12.576Z,13.45
2023-05-21T05:06:40.722Z,11.90
2023-05-21T05:09:09.062Z,12.23
2023-05-21T05:11:38.747Z,11.60
2023-05-21T05:14:06.826Z,11.88
2023-05-21T05:16:35.548Z,12.68
2023-05-21T05:19:03.902Z,14.80
2023-05-21T05:21:33.145Z,15.38
2023-05-21T05:24:01.443Z,16.77
2023-05-21T05:26:32.765Z,13.55
2023-05-21T05:29:02.683Z,12.50
2023-05-21T05:31:30.831Z,13.27
2023-05-21T05:33:58.983Z,12.85
2023-05-21T05:36:27.176Z,11.15
2023-05-21T05:38:55.166Z,12.95
2023-05-21T05:41:23.773Z,12.10
2023-05-21T05:43:52.023Z,12.52
2023-05-21T05:46:23.648Z,9.68
2023-05-21T05:48:52.730Z,11.00
2023-05-21T05:51:20.989Z,15.00
2023-05-21T05:53:48.969Z,11.93
2023-05-21T05:56:17.915Z,12.45
2023-05-21T05:58:46.673Z,11.20
2023-05-21T06:01:16.425Z,13.68
2023-05-21T06:03:46.642Z,10.02
2023-05-21T06:06:20.212Z,12.13
2023-05-21T06:08:48.717Z,13.65
2023-05-21T06:11:19.010Z,12.65
2023-05-21T06:13:47.348Z,11.13
2023-05-21T06:16:17.669Z,12.95
2023-05-21T06:18:47.610Z,12.02
2023-05-21T06:21:15.772Z,9.10
2023-05-21T06:23:43.842Z,11.88
2023-05-21T06:26:12.884Z,11.02
2023-05-21T06:28:42.600Z,13.38
2023-05-21T06:31:11.859Z,11.02
2023-05-21T06:33:40.807Z,13.88
2023-05-21T06:36:10.812Z,10.45
2023-05-21T06:38:38.862Z,9.73
2023-05-21T06:41:07.743Z,13.57
2023-05-21T06:43:56.763Z,8.75
2023-05-21T06:46:58.065Z,10.57
2023-05-21T06:49:26.523Z,14.18
2023-05-21T06:51:55.929Z,10.60
2023-05-21T06:54:26.693Z,9.85
2023-05-21T06:56:55.032Z,12.88
2023-05-21T06:59:22.998Z,16.23
2023-05-21T07:01:50.966Z,17.13
2023-05-21T07:04:19.225Z,9.32
2023-05-21T07:06:48.603Z,10.43
2023-05-21T07:09:24.120Z,9.40
2023-05-21T07:11:53.235Z,12.65
2023-05-21T07:14:22.415Z,11.10
2023-05-21T07:16:53.218Z,11.70
2023-05-21T07:19:23.665Z,9.77
2023-05-21T07:21:51.854Z,12.90
2023-05-21T07:24:21.237Z,8.88
2023-05-21T07:26:50.976Z,8.93
2023-05-21T07:29:19.159Z,10.93
2023-05-21T07:31:47.126Z,12.05
2023-05-21T07:34:15.417Z,10.30
2023-05-21T07:36:45.876Z,8.07
2023-05-21T07:39:14.485Z,10.77
2023-05-21T07:41:43.888Z,8.70
2023-05-21T07:44:14.304Z,12.10
2023-05-21T07:46:45.527Z,7.60
2023-05-21T07:49:16.860Z,7.38
2023-05-21T07:51:46.699Z,9.00
2023-05-21T07:54:18.270Z,7.47
2023-05-21T07:56:47.738Z,8.50
2023-05-21T07:59:33.665Z,12.23
2023-05-21T08:02:02.251Z,9.38
2023-05-21T08:04:30.436Z,8.55
2023-05-21T08:06:58.553Z,7.50
2023-05-21T08:09:26.642Z,9.20
2023-05-21T08:11:54.626Z,9.18
2023-05-21T08:14:22.775Z,8.27
2023-05-21T08:16:52.757Z,10.43
2023-05-21T08:19:21.080Z,9.95
2023-05-21T08:21:52.074Z,8.15
2023-05-21T08:24:22.876Z,7.70
2023-05-21T08:26:52.388Z,8.93
2023-05-21T08:29:20.539Z,8.52
2023-05-21T08:32:01.669Z,9.57
2023-05-21T08:34:30.456Z,6.55
2023-05-21T08:37:11.845Z,9.32
2023-05-21T08:39:58.439Z,8.90
2023-05-21T08:42:37.851Z,6.28
2023-05-21T08:45:07.945Z,10.60
2023-05-21T08:47:37.962Z,6.50
2023-05-21T08:50:10.871Z,8.73
2023-05-21T08:52:39.352Z,9.38
2023-05-21T08:55:08.613Z,8.00
2023-05-21T08:57:38.454Z,6.28
2023-05-21T09:00:12.136Z,7.22
2023-05-21T09:02:43.674Z,6.38
2023-05-21T09:05:14.244Z,12.20
2023-05-21T09:07:49.303Z,5.85
2023-05-21T09:10:39.797Z,6.25
2023-05-21T09:13:08.418Z,6.43
2023-05-21T09:15:37.437Z,4.85
2023-05-21T09:18:07.195Z,7.30
2023-05-21T09:20:45.621Z,7.40
2023-05-21T09:23:16.823Z,9.10
2023-05-21T09:25:48.002Z,8.15
2023-05-21T09:28:23.788Z,6.05
2023-05-21T09:30:54.588Z,6.57
2023-05-21T09:33:29.242Z,5.93
2023-05-21T09:35:57.531Z,10.45
2023-05-21T09:38:27.706Z,6.43
2023-05-21T09:40:56.529Z,8.02
2023-05-21T09:43:24.564Z,6.82
2023-05-21T09:45:54.198Z,6.45
2023-05-21T09:48:42.084Z,6.72
2023-05-21T09:51:20.550Z,5.57
2023-05-21T09:53:51.612Z,6.15
2023-05-21T09:56:24.684Z,5.60
2023-05-21T09:58:54.790Z,4.90
2023-05-21T10:01:23.429Z,6.35
2023-05-21T10:03:56.904Z,5.18
2023-05-21T10:06:27.630Z,5.53
2023-05-21T10:08:57.832Z,5.30
2023-05-21T10:11:28.206Z,7.88
2023-05-21T10:14:03.092Z,5.40
2023-05-21T10:16:36.613Z,6.88
2023-05-21T10:19:10.894Z,7.63
2023-05-21T10:21:41.093Z,4.30
2023-05-21T10:24:14.006Z,7.72
2023-05-21T10:26:42.743Z,4.93
2023-05-21T10:29:11.410Z,4.40
2023-05-21T10:31:40.574Z,5.60
2023-05-21T10:34:12.660Z,4.93
2023-05-21T10:36:41.156Z,6.82
2023-05-21T10:39:10.782Z,8.50
2023-05-21T10:41:59.544Z,5.13
2023-05-21T10:44:37.854Z,7.82
2023-05-21T10:47:26.039Z,5.90
2023-05-21T10:50:29.707Z,7.68
2023-05-21T10:53:10.961Z,6.53
2023-05-21T10:55:52.571Z,6.10
2023-05-21T10:58:38.942Z,5.25
2023-05-21T11:01:08.380Z,4.85
2023-05-21T11:03:38.262Z,7.43
2023-05-21T11:06:08.502Z,4.97
2023-05-21T11:08:39.081Z,6.63
2023-05-21T11:11:07.245Z,9.00
2023-05-21T11:13:48.756Z,9.02
2023-05-21T11:16:18.012Z,7.78
2023-05-21T11:19:02.544Z,6.47
2023-05-21T11:21:36.608Z,4.93
2023-05-21T11:24:08.821Z,6.68
2023-05-21T11:27:06.800Z,7.35
2023-05-21T11:29:44.338Z,3.42
2023-05-21T11:32:15.602Z,5.93
2023-05-21T11:34:47.917Z,5.05
2023-05-21T11:37:31.861Z,5.15
2023-05-21T11:40:18.329Z,4.85
2023-05-21T11:42:51.010Z,4.20
2023-05-21T11:45:20.958Z,6.38
2023-05-21T11:47:49.822Z,6.30
2023-05-21T11:50:18.813Z,4.18
2023-05-21T11:52:48.510Z,3.97
2023-05-21T11:55:17.335Z,4.78
2023-05-21T11:57:48.109Z,4.97
2023-05-21T12:00:17.487Z,5.18
2023-05-21T12:02:47.802Z,5.85
2023-05-21T12:05:16.546Z,3.50
2023-05-21T12:07:51.035Z,5.20
2023-05-21T12:10:23.170Z,7.00
2023-05-21T12:12:55.444Z,6.07
2023-05-21T12:15:24.902Z,4.00
2023-05-21T12:17:53.785Z,4.32
2023-05-21T12:20:22.420Z,4.85
2023-05-21T12:22:51.843Z,3.85
2023-05-21T12:25:21.206Z,5.22
2023-05-21T12:27:52.807Z,5.30
2023-05-21T12:30:21.788Z,7.40
2023-05-21T12:32:50.207Z,6.13
2023-05-21T12:35:23.263Z,4.30
2023-05-21T12:37:53.632Z,5.18
2023-05-21T12:40:22.273Z,3.90
2023-05-21T12:42:51.623Z,7.13
2023-05-21T12:45:21.966Z,6.55
2023-05-21T12:47:56.203Z,3.28
2023-05-21T12:50:24.919Z,6.30
2023-05-21T12:52:57.273Z,4.70
2023-05-21T12:55:26.502Z,4.68
2023-05-21T12:58:05.082Z,6.28
2023-05-21T13:00:34.330Z,9.50
2023-05-21T13:03:04.548Z,4.05
2023-05-21T13:05:34.347Z,6.32
2023-05-21T13:08:04.202Z,4.95
2023-05-21T13:10:32.696Z,4.15
2023-05-21T13:13:01.732Z,8.82
2023-05-21T13:15:30.237Z,4.22
2023-05-21T13:18:01.107Z,5.35
2023-05-21T13:20:29.759Z,4.10
2023-05-21T13:22:58.402Z,5.22
2023-05-21T13:25:30.267Z,4.68
2023-05-21T13:27:59.120Z,4.25
2023-05-21T13:30:27.316Z,5.22
2023-05-21T13:32:55.832Z,7.82
2023-05-21T13:35:24.289Z,5.07
2023-05-21T13:37:52.781Z,4.75
2023-05-21T13:40:21.405Z,5.57
2023-05-21T13:42:51.492Z,5.50
2023-05-21T13:45:21.137Z,6.18
2023-05-21T13:47:50.061Z,7.05
2023-05-21T13:50:18.454Z,8.30
2023-05-21T13:52:47.178Z,6.75
2023-05-21T13:55:15.898Z,5.18
2023-05-21T13:57:44.331Z,4.10
2023-05-21T14:00:17.449Z,5.10
2023-05-21T14:02:46.662Z,7.25
2023-05-21T14:05:15.322Z,3.38
2023-05-21T14:07:43.507Z,4.55
2023-05-21T14:10:12.984Z,6.30
2023-05-21T14:12:42.099Z,3.47
2023-05-21T14:15:11.028Z,5.03
2023-05-21T14:17:42.571Z,6.15
2023-05-21T14:20:11.604Z,6.68
2023-05-21T14:22:39.884Z,5.07
2023-05-21T14:25:09.006Z,4.60
2023-05-21T14:27:38.516Z,6.75
2023-05-21T14:30:07.862Z,5.80
2023-05-21T14:32:36.427Z,7.28
2023-05-21T14:35:07.359Z,7.75
2023-05-21T14:37:36.774Z,7.40
2023-05-21T14:40:07.980Z,4.38
2023-05-21T14:42:36.456Z,4.18
2023-05-21T14:45:18.190Z,4.40
2023-05-21T14:47:48.960Z,3.97
2023-05-21T14:50:19.357Z,4.32
2023-05-21T14:52:47.463Z,6.70
2023-05-21T14:55:16.882Z,7.63
2023-05-21T14:57:45.293Z,4.00
2023-05-21T15:00:14.113Z,3.60
2023-05-21T15:02:42.562Z,9.25
2023-05-21T15:05:10.815Z,6.93
2023-05-21T15:07:40.161Z,3.50
2023-05-21T15:10:11.358Z,10.57
2023-05-21T15:12:39.597Z,4.05
2023-05-21T15:15:08.560Z,5.30
2023-05-21T15:17:36.979Z,7.30
2023-05-21T15:20:06.139Z,5.53
2023-05-21T15:22:34.558Z,4.47
2023-05-21T15:25:04.523Z,2.60
2023-05-21T15:27:32.622Z,4.28
2023-05-21T15:30:00.992Z,3.65
2023-05-21T15:32:29.118Z,3.85
2023-05-21T15:34:57.182Z,2.78
2023-05-21T15:37:25.290Z,5.30
2023-05-21T15:39:54.023Z,4.20
2023-05-21T15:42:23.362Z,4.63
2023-05-21T15:44:51.353Z,5.10
2023-05-21T15:47:19.686Z,3.92
2023-05-21T15:49:47.736Z,5.13
2023-05-21T15:52:15.720Z,7.00
2023-05-21T15:54:43.647Z,2.88
2023-05-21T15:57:11.679Z,3.20
2023-05-21T15:59:41.050Z,7.50
2023-05-21T16:02:09.239Z,4.97
2023-05-21T16:04:37.835Z,6.53
2023-05-21T16:07:06.217Z,3.85
2023-05-21T16:09:35.356Z,6.03
2023-05-21T16:12:03.259Z,5.45
2023-05-21T16:14:31.202Z,2.75
2023-05-21T16:17:00.627Z,4.00
2023-05-21T16:19:28.666Z,5.13
2023-05-21T16:21:56.997Z,4.25
2023-05-21T16:24:24.937Z,4.47
2023-05-21T16:26:52.858Z,3.40
2023-05-21T16:29:22.122Z,5.20
2023-05-21T16:31:50.280Z,4.40
2023-05-21T16:34:19.601Z,4.85
2023-05-21T16:36:47.584Z,4.93
2023-05-21T16:39:15.524Z,2.50
2023-05-21T16:41:44.782Z,3.95
2023-05-21T16:44:12.828Z,5.28
2023-05-21T16:46:40.816Z,4.22
2023-05-21T16:49:08.893Z,3.55
2023-05-21T16:51:38.191Z,3.90
2023-05-21T16:54:06.341Z,5.60
2023-05-21T16:56:34.377Z,4.75
2023-05-21T16:59:02.296Z,6.68
2023-05-21T17:01:30.296Z,4.60
2023-05-21T17:03:58.423Z,4.60
2023-05-21T17:06:26.496Z,2.92
2023-05-21T17:08:55.999Z,5.85
2023-05-21T17:11:24.034Z,3.40
2023-05-21T17:13:51.986Z,2.33
2023-05-21T17:16:20.073Z,5.57
2023-05-21T17:18:48.206Z,3.60
2023-05-21T17:21:16.237Z,10.35
2023-05-21T17:23:44.166Z,4.88
2023-05-21T17:26:13.915Z,3.05
2023-05-21T17:28:41.916Z,6.28
2023-05-21T17:31:10.503Z,4.68
2023-05-21T17:33:38.979Z,3.15
2023-05-21T17:36:07.286Z,3.22
2023-05-21T17:38:35.246Z,3.10
2023-05-21T17:41:03.247Z,3.58
2023-05-21T17:43:32.807Z,3.45
2023-05-21T17:46:00.901Z,3.80
2023-05-21T17:48:28.933Z,5.03
2023-05-21T17:50:56.907Z,5.88
2023-05-21T17:53:24.912Z,12.23
2023-05-21T17:55:53.268Z,6.57
2023-05-21T17:58:21.352Z,13.95
2023-05-21T18:00:50.793Z,2.55
2023-05-21T18:03:19.011Z,4.35
2023-05-21T18:05:46.995Z,5.50
2023-05-21T18:08:15.083Z,6.32
2023-05-21T18:10:45.243Z,4.43
2023-05-21T18:13:13.238Z,3.22
2023-05-21T18:15:41.208Z,3.22
2023-05-21T18:18:18.474Z,6.25
2023-05-21T18:20:48.839Z,5.28
2023-05-21T18:23:16.895Z,9.27
2023-05-21T18:25:45.083Z,3.63
2023-05-21T18:28:13.184Z,5.10
2023-05-21T18:30:41.316Z,3.75
2023-05-21T18:33:12.529Z,2.67
2023-05-21T18:35:40.628Z,2.92
2023-05-21T18:38:09.865Z,2.70
2023-05-21T18:40:38.489Z,3.55
2023-05-21T18:43:06.889Z,4.88
2023-05-21T18:45:34.961Z,4.05
2023-05-21T18:48:03.661Z,21.52
2023-05-21T18:50:34.405Z,3.95
2023-05-21T18:53:02.616Z,3.60
2023-05-21T18:55:30.630Z,4.78
2023-05-21T18:57:58.777Z,7.30
2023-05-21T19:00:26.805Z,6.10
2023-05-21T19:02:56.217Z,5.07
2023-05-21T19:05:24.330Z,4.25
2023-05-21T19:07:53.842Z,2.88
2023-05-21T19:10:21.816Z,6.60
2023-05-21T19:12:49.917Z,4.78
2023-05-21T19:15:18.114Z,4.57
2023-05-21T19:17:46.141Z,3.97
2023-05-21T19:20:23.664Z,5.05
2023-05-21T19:22:53.279Z,5.88
2023-05-21T19:25:21.314Z,3.45
2023-05-21T19:27:49.379Z,5.22
2023-05-21T19:30:17.731Z,4.82
2023-05-21T19:32:46.953Z,4.00
2023-05-21T19:35:15.698Z,11.57
2023-05-21T19:37:43.739Z,5.35
2023-05-21T19:40:14.026Z,5.53
2023-05-21T19:42:42.016Z,4.05
2023-05-21T19:45:11.810Z,3.70
2023-05-21T19:47:41.041Z,3.50
2023-05-21T19:50:11.548Z,3.58
2023-05-21T19:52:39.883Z,2.97
2023-05-21T19:55:10.212Z,3.13
2023-05-21T19:57:39.958Z,4.05
2023-05-21T20:00:10.312Z,6.43
2023-05-21T20:02:41.670Z,5.65
2023-05-21T20:05:10.650Z,4.50
2023-05-21T20:07:38.964Z,4.50
2023-05-21T20:10:08.846Z,6.50
2023-05-21T20:12:36.982Z,5.60
2023-05-21T20:15:07.708Z,3.05
2023-05-21T20:17:35.883Z,6.53
2023-05-21T20:20:10.301Z,6.38
2023-05-21T20:22:38.310Z,3.67
2023-05-21T20:25:08.709Z,3.85
2023-05-21T20:27:38.581Z,4.30
2023-05-21T20:30:09.884Z,4.05
2023-05-21T20:32:38.040Z,5.57
2023-05-21T20:35:08.873Z,4.68
2023-05-21T20:37:36.854Z,3.90
2023-05-21T20:40:07.036Z,2.78
2023-05-21T20:42:36.378Z,3.25
2023-05-21T20:45:04.966Z,4.32
2023-05-21T20:47:34.901Z,5.95
2023-05-21T20:50:03.845Z,5.32
2023-05-21T20:52:32.135Z,6.00
2023-05-21T20:55:00.448Z,3.53
2023-05-21T20:57:29.237Z,4.00
2023-05-21T20:59:57.481Z,5.90
2023-05-21T21:02:25.515Z,7.65
2023-05-21T21:04:56.265Z,3.90
2023-05-21T21:07:24.324Z,4.18
2023-05-21T21:09:52.430Z,6.18
2023-05-21T21:12:25.183Z,4.00
2023-05-21T21:14:54.705Z,3.85
2023-05-21T21:17:22.763Z,5.85
2023-05-21T21:19:50.867Z,6.95
2023-05-21T21:22:20.974Z,5.30
2023-05-21T21:24:48.994Z,4.32
2023-05-21T21:27:17.002Z,4.32
2023-05-21T21:29:46.463Z,6.95
2023-05-21T21:32:14.474Z,4.32
2023-05-21T21:34:42.586Z,3.72
2023-05-21T21:37:11.600Z,4.93
2023-05-21T21:39:41.226Z,5.75
2023-05-21T21:42:09.261Z,3.72
2023-05-21T21:44:39.121Z,4.57
2023-05-21T21:47:07.264Z,8.73
2023-05-21T21:49:35.263Z,5.60
2023-05-21T21:52:03.449Z,6.07
2023-05-21T21:54:31.423Z,4.25
2023-05-21T21:57:00.796Z,4.82
2023-05-21T21:59:29.442Z,4.38
2023-05-21T22:01:57.662Z,4.88
2023-05-21T22:04:25.616Z,4.00
2023-05-21T22:06:53.666Z,4.85
2023-05-21T22:09:22.428Z,4.15
2023-05-21T22:11:50.856Z,5.35
2023-05-21T22:14:20.173Z,3.58
2023-05-21T22:16:48.371Z,4.10
2023-05-21T22:19:20.370Z,5.80
2023-05-21T22:21:48.592Z,4.95
2023-05-21T22:24:30.976Z,4.38
2023-05-21T22:27:00.486Z,3.25
2023-05-21T22:29:29.932Z,4.18
2023-05-21T22:31:57.933Z,6.63
2023-05-21T22:34:25.963Z,4.45
2023-05-21T22:36:53.939Z,4.95
2023-05-21T22:39:21.871Z,3.72
2023-05-21T22:41:49.977Z,3.60
2023-05-21T22:44:17.996Z,3.75
2023-05-21T22:46:47.698Z,3.45
2023-05-21T22:49:16.321Z,6.40
2023-05-21T22:51:44.981Z,7.95
2023-05-21T22:54:13.011Z,5.93
2023-05-21T22:56:40.957Z,4.57
2023-05-21T22:59:09.145Z,2.78
2023-05-21T23:01:37.997Z,4.43
2023-05-21T23:04:07.563Z,3.05
2023-05-21T23:06:35.572Z,4.78
2023-05-21T23:09:03.772Z,7.85
2023-05-21T23:11:31.937Z,6.47
2023-05-21T23:14:00.208Z,4.25
2023-05-21T23:16:30.650Z,4.65
2023-05-21T23:18:59.050Z,4.97
2023-05-21T23:21:28.763Z,3.17
2023-05-21T23:23:56.870Z,7.35
2023-05-21T23:26:25.546Z,3.85
2023-05-21T23:28:53.604Z,6.65
2023-05-21T23:31:21.802Z,3.83
2023-05-21T23:33:51.690Z,3.80
2023-05-21T23:36:20.024Z,5.35
2023-05-21T23:38:49.442Z,2.83
2023-05-21T23:41:17.581Z,3.85
2023-05-21T23:43:45.510Z,2.97
2023-05-21T23:46:13.625Z,3.85
2023-05-21T23:48:41.940Z,5.28
2023-05-21T23:51:10.116Z,2.10
2023-05-21T23:53:44.842Z,28.73
2023-05-21T23:56:20.517Z,3.80
2023-05-21T23:58:48.892Z,3.10
